Time;durP1;ratioP1;P1;durP2;ratioP2;P2;SDS_P1;SDS_P2;PMS_P1;PMS_P2;Temp;Humidity;BMP_temperature;BMP_pressure;BME280_temperature;BME280_humidity;BME280_pressure;Samples;Min_cycle;Max_cycle;Signal;HPM_P1;HPM_P2
2023/05/23 00:01:31;;;;;;;20.27;10.63;;;;;;;23.12;48.27;101577.75;4953102;28;20055;-66
2023/05/23 00:03:57;;;;;;;22.45;11.07;;;;;;;23.11;48.96;101582.41;4953530;29;20027;-66
2023/05/23 00:06:24;;;;;;;20.20;10.80;;;;;;;23.09;49.05;101591.81;4954210;28;20046;-65
2023/05/23 00:08:49;;;;;;;17.50;10.93;;;;;;;23.04;48.72;101586.06;4954274;28;20450;-64
2023/05/23 00:11:15;;;;;;;20.85;11.00;;;;;;;23.00;48.15;101591.06;4953183;29;20519;-64
2023/05/23 00:13:41;;;;;;;22.77;12.07;;;;;;;22.92;48.54;101584.91;4955436;28;20031;-65
2023/05/23 00:16:08;;;;;;;21.27;11.20;;;;;;;22.91;48.95;101592.25;4956998;28;20388;-66
2023/05/23 00:18:35;;;;;;;30.75;11.20;;;;;;;22.87;49.14;101595.53;4956606;29;20123;-65
2023/05/23 00:21:01;;;;;;;21.63;11.57;;;;;;;22.84;49.02;101591.28;4956511;29;20050;-65
2023/05/23 00:23:28;;;;;;;22.55;11.93;;;;;;;22.80;48.36;101587.28;4956535;29;20028;-65
2023/05/23 00:25:54;;;;;;;19.20;11.68;;;;;;;22.82;47.95;101592.53;4956960;28;20134;-65
2023/05/23 00:28:20;;;;;;;20.50;11.68;;;;;;;22.80;49.10;101594.63;4973435;28;20027;-64
2023/05/23 00:30:47;;;;;;;20.83;11.77;;;;;;;22.78;47.95;101599.44;4940182;29;20035;-64
2023/05/23 00:33:15;;;;;;;19.25;10.98;;;;;;;22.76;48.18;101594.13;4956530;29;20507;-65
2023/05/23 00:35:41;;;;;;;21.08;11.50;;;;;;;22.76;48.69;101601.47;4956551;29;20526;-65
2023/05/23 00:38:06;;;;;;;18.70;10.40;;;;;;;22.72;48.64;101598.31;4956497;29;20035;-65
2023/05/23 00:40:33;;;;;;;29.23;12.02;;;;;;;22.68;48.67;101602.44;4956319;28;20119;-64
2023/05/23 00:42:59;;;;;;;21.60;11.13;;;;;;;22.64;49.13;101605.75;4956884;28;20022;-64
2023/05/23 00:45:25;;;;;;;26.35;11.25;;;;;;;22.56;48.36;101609.38;4955944;28;20094;-65
2023/05/23 00:47:51;;;;;;;19.38;12.15;;;;;;;22.46;48.82;101604.19;4956109;28;20031;-65
2023/05/23 00:50:17;;;;;;;21.10;11.85;;;;;;;22.42;49.46;101613.78;4957453;28;20100;-66
2023/05/23 00:52:44;;;;;;;25.15;11.70;;;;;;;22.39;49.34;101619.63;4955889;28;20116;-66
2023/05/23 00:55:10;;;;;;;20.65;11.18;;;;;;;22.37;49.50;101621.69;4956414;29;20524;-66
2023/05/23 00:57:40;;;;;;;21.98;11.15;;;;;;;22.35;48.59;101626.50;4955890;29;20058;-64
2023/05/23 01:00:11;;;;;;;21.73;12.68;;;;;;;22.29;48.97;101621.78;4955890;29;20122;-64
2023/05/23 01:02:44;;;;;;;20.80;12.35;;;;;;;22.28;49.10;101628.25;4955698;28;20035;-64
2023/05/23 01:05:13;;;;;;;26.38;11.90;;;;;;;22.27;49.52;101626.59;4971901;28;20035;-67
2023/05/23 01:07:42;;;;;;;27.17;11.88;;;;;;;22.22;49.67;101629.00;4955952;28;20047;-65
2023/05/23 01:10:08;;;;;;;17.73;11.30;;;;;;;22.22;49.49;101623.53;4939888;29;20034;-65
2023/05/23 01:13:16;;;;;;;26.58;11.90;;;;;;;22.22;49.89;101629.00;4956585;28;20042;-64
2023/05/23 01:15:51;;;;;;;22.00;11.65;;;;;;;22.20;48.86;101631.06;4919319;29;20530;-64
2023/05/23 01:18:31;;;;;;;23.67;11.65;;;;;;;22.18;49.03;101624.97;4956727;28;20040;-65
2023/05/23 01:21:06;;;;;;;24.38;11.68;;;;;;;22.14;49.60;101626.34;4955671;29;20040;-64
2023/05/23 01:24:09;;;;;;;20.63;10.18;;;;;;;22.11;50.00;101640.38;4939047;29;20035;-64
2023/05/23 01:27:07;;;;;;;14.02;9.73;;;;;;;22.06;48.99;101648.25;4956751;28;20055;-65
2023/05/23 01:29:46;;;;;;;18.23;9.88;;;;;;;21.95;49.84;101657.75;4955534;29;20118;-65
2023/05/23 01:32:13;;;;;;;20.70;10.15;;;;;;;21.92;49.11;101658.09;4955776;28;20031;-65
2023/05/23 01:34:39;;;;;;;19.17;10.15;;;;;;;21.93;49.23;101661.69;4955559;28;20106;-65
2023/05/23 01:37:09;;;;;;;19.40;9.85;;;;;;;21.90;49.93;101652.00;4955925;29;20488;-65
2023/05/23 01:39:35;;;;;;;17.25;8.68;;;;;;;21.94;49.93;101669.69;4939137;29;20051;-65
2023/05/23 01:42:00;;;;;;;16.25;9.43;;;;;;;21.95;49.11;101662.34;4939141;29;20058;-65
2023/05/23 01:44:26;;;;;;;18.33;9.13;;;;;;;21.95;49.98;101659.63;4971218;28;20418;-65
2023/05/23 01:46:51;;;;;;;17.05;9.80;;;;;;;21.93;49.87;101662.53;4954942;28;20083;-66
2023/05/23 01:49:17;;;;;;;22.15;9.38;;;;;;;21.89;49.01;101663.91;4971545;28;20065;-66
2023/05/23 01:51:43;;;;;;;19.88;10.25;;;;;;;21.87;49.37;101667.88;4954859;29;20058;-66
2023/05/23 01:54:08;;;;;;;22.85;10.25;;;;;;;21.84;49.56;101662.75;4954984;29;20038;-65
2023/05/23 01:56:34;;;;;;;14.45;9.38;;;;;;;21.81;49.42;101663.97;4954988;29;20032;-65
2023/05/23 01:59:00;;;;;;;20.50;10.00;;;;;;;21.82;49.65;101662.09;4954726;29;20439;-65
2023/05/23 02:01:26;;;;;;;17.08;9.38;;;;;;;21.81;49.08;101663.09;4955038;29;20094;-65
2023/05/23 02:03:51;;;;;;;17.83;9.90;;;;;;;21.80;49.62;101672.34;4954480;29;20043;-65
2023/05/23 02:06:18;;;;;;;16.95;9.50;;;;;;;21.79;49.60;101676.09;4955416;28;20043;-65
2023/05/23 02:08:43;;;;;;;20.25;9.40;;;;;;;21.77;50.08;101653.59;4956559;28;20103;-65
2023/05/23 02:11:09;;;;;;;16.40;8.77;;;;;;;21.71;49.79;101663.38;4956068;28;20038;-65
2023/05/23 02:13:35;;;;;;;20.05;9.57;;;;;;;21.69;50.17;101648.22;4954933;28;20027;-65
2023/05/23 02:16:00;;;;;;;18.30;8.80;;;;;;;21.71;49.64;101651.59;4955081;29;20027;-65
2023/05/23 02:18:28;;;;;;;16.23;8.95;;;;;;;21.72;50.31;101656.84;4955591;28;20028;-65
2023/05/23 02:20:54;;;;;;;19.35;8.95;;;;;;;21.72;49.78;101656.84;4970822;28;20042;-65
2023/05/23 02:23:20;;;;;;;14.25;9.40;;;;;;;21.68;49.54;101657.41;4954857;29;20035;-65
2023/05/23 02:25:45;;;;;;;15.38;9.25;;;;;;;21.67;49.90;101658.44;4954356;28;20031;-66
2023/05/23 02:28:11;;;;;;;18.25;8.40;;;;;;;21.64;50.40;101646.00;4955785;28;20027;-65
2023/05/23 02:30:37;;;;;;;18.45;8.07;;;;;;;21.61;50.38;101656.44;4954337;28;20038;-65
2023/05/23 02:33:06;;;;;;;16.45;8.43;;;;;;;21.60;49.67;101654.75;4969943;28;20073;-65
2023/05/23 02:35:32;;;;;;;12.52;8.77;;;;;;;21.64;49.52;101658.78;4954763;28;20525;-65
2023/05/23 02:37:58;;;;;;;12.25;7.25;;;;;;;21.62;50.37;101658.13;4954160;29;20039;-65
2023/05/23 02:40:23;;;;;;;13.65;7.25;;;;;;;21.61;49.92;101657.28;4954445;29;20090;-65
2023/05/23 02:42:50;;;;;;;14.05;7.93;;;;;;;21.61;50.06;101667.38;4955539;28;20451;-65
2023/05/23 02:45:16;;;;;;;11.63;6.78;;;;;;;21.60;49.92;101668.38;4954383;29;20034;-66
2023/05/23 02:47:41;;;;;;;12.00;6.70;;;;;;;21.59;49.84;101672.13;4954455;29;20035;-65
2023/05/23 02:50:07;;;;;;;14.77;7.47;;;;;;;21.60;50.00;101671.97;4955810;28;20104;-65
2023/05/23 02:52:34;;;;;;;11.77;6.75;;;;;;;21.57;49.46;101669.59;4969617;28;20533;-65
2023/05/23 02:54:59;;;;;;;13.15;7.72;;;;;;;21.60;49.38;101680.13;4954732;29;20432;-65
2023/05/23 02:57:25;;;;;;;11.30;6.68;;;;;;;21.55;49.84;101681.72;4953957;29;20031;-65
2023/05/23 02:59:50;;;;;;;11.80;7.32;;;;;;;21.57;49.71;101679.63;4953656;29;20049;-65
2023/05/23 03:02:16;;;;;;;13.65;6.60;;;;;;;21.55;49.48;101676.25;4954765;28;20035;-66
2023/05/23 03:04:41;;;;;;;14.82;6.75;;;;;;;21.55;49.76;101690.75;4954776;28;20377;-65
2023/05/23 03:07:06;;;;;;;17.05;7.40;;;;;;;21.51;49.29;101683.94;4953848;29;20402;-65
2023/05/23 03:09:32;;;;;;;14.38;7.25;;;;;;;21.47;50.48;101686.16;4954979;28;20058;-65
2023/05/23 03:11:58;;;;;;;11.82;6.80;;;;;;;21.46;49.57;101687.22;4955058;28;20038;-65
2023/05/23 03:14:23;;;;;;;16.73;7.60;;;;;;;21.44;49.36;101689.25;4953950;29;20027;-65
2023/05/23 03:16:48;;;;;;;12.75;7.05;;;;;;;21.43;50.03;101686.72;4955239;28;20446;-65
2023/05/23 03:19:14;;;;;;;15.25;7.90;;;;;;;21.39;49.35;101697.13;4955036;28;20027;-65
2023/05/23 03:21:39;;;;;;;15.20;7.38;;;;;;;21.41;50.25;101695.06;4969528;28;20059;-65
2023/05/23 03:24:05;;;;;;;18.80;7.07;;;;;;;21.44;49.43;101700.16;4969572;28;20499;-65
2023/05/23 03:26:31;;;;;;;14.85;6.78;;;;;;;21.41;49.63;101700.50;4953922;29;20440;-65
2023/05/23 03:28:56;;;;;;;14.77;6.80;;;;;;;21.43;49.17;101709.38;4954668;28;20038;-65
2023/05/23 03:31:22;;;;;;;19.20;7.53;;;;;;;21.42;50.00;101702.22;4954986;28;20027;-64
2023/05/23 03:33:47;;;;;;;16.05;6.88;;;;;;;21.41;49.47;101705.97;4954902;28;20066;-64
2023/05/23 03:36:12;;;;;;;24.23;7.95;;;;;;;21.42;49.62;101713.13;4937271;29;20380;-64
2023/05/23 03:38:38;;;;;;;14.00;7.53;;;;;;;21.41;49.45;101716.03;4954504;28;20066;-64
2023/05/23 03:41:03;;;;;;;13.48;6.50;;;;;;;21.37;49.20;101710.09;4969166;28;20035;-64
2023/05/23 03:43:28;;;;;;;14.93;6.93;;;;;;;21.37;50.05;101721.00;4953152;28;20395;-66
2023/05/23 03:45:54;;;;;;;16.10;7.53;;;;;;;21.35;49.97;101720.31;4953524;29;20038;-64
2023/05/23 03:48:19;;;;;;;13.13;7.05;;;;;;;21.31;49.72;101713.50;4956916;28;20028;-64
2023/05/23 03:50:45;;;;;;;18.40;7.57;;;;;;;21.34;49.14;101723.22;4972906;28;20042;-64
2023/05/23 03:53:11;;;;;;;27.83;8.95;;;;;;;21.31;49.98;101726.28;4940987;29;20471;-64
2023/05/23 03:55:37;;;;;;;13.38;7.20;;;;;;;21.32;49.32;101734.31;4956899;28;20484;-64
2023/05/23 03:58:03;;;;;;;14.55;7.40;;;;;;;21.32;50.16;101734.31;4957298;29;20023;-64
2023/05/23 04:00:28;;;;;;;17.33;7.28;;;;;;;21.31;49.31;101735.31;4956644;29;20063;-64
2023/05/23 04:02:54;;;;;;;14.35;7.22;;;;;;;21.30;49.78;101736.34;4958356;28;20043;-64
2023/05/23 04:05:20;;;;;;;19.50;7.32;;;;;;;21.29;49.43;101740.09;4957994;28;20119;-64
2023/05/23 04:07:45;;;;;;;11.85;6.47;;;;;;;21.24;49.33;101739.78;4958142;28;20106;-64
2023/05/23 04:10:11;;;;;;;15.95;8.15;;;;;;;21.22;50.00;101739.09;4958362;28;20487;-64
2023/05/23 04:12:40;;;;;;;22.95;8.07;;;;;;;21.19;49.59;101736.72;4957888;28;20035;-64
2023/05/23 04:15:06;;;;;;;11.98;7.18;;;;;;;21.18;49.82;101743.22;4956957;29;20032;-64
2023/05/23 04:17:32;;;;;;;16.85;7.55;;;;;;;21.17;49.52;101741.50;4956649;29;20032;-63
2023/05/23 04:19:57;;;;;;;18.83;8.00;;;;;;;21.19;49.62;101741.34;4957826;28;20035;-64
2023/05/23 04:22:22;;;;;;;17.95;8.13;;;;;;;21.17;49.16;101736.06;4957055;29;20027;-64
2023/05/23 04:24:48;;;;;;;21.27;7.55;;;;;;;21.18;49.44;101743.22;4956457;29;20399;-64
2023/05/23 04:27:13;;;;;;;20.05;7.60;;;;;;;21.17;50.08;101737.94;4957875;28;20122;-64
2023/05/23 04:29:38;;;;;;;14.77;8.15;;;;;;;21.17;49.48;101741.50;4956514;29;20411;-63
2023/05/23 04:32:05;;;;;;;17.92;8.43;;;;;;;21.17;50.01;101746.97;4957607;28;20031;-64
2023/05/23 04:34:32;;;;;;;15.40;6.90;;;;;;;21.15;50.09;101740.84;4940303;28;20035;-64
2023/05/23 04:37:01;;;;;;;16.17;7.65;;;;;;;21.14;49.96;101752.75;4957124;28;20391;-64
2023/05/23 04:39:26;;;;;;;17.80;7.70;;;;;;;21.13;49.78;101745.63;4972343;28;20452;-63
2023/05/23 04:41:53;;;;;;;14.00;7.05;;;;;;;21.13;50.11;101750.22;4956358;29;20069;-64
2023/05/23 04:44:19;;;;;;;21.05;7.68;;;;;;;21.16;49.92;101749.88;4957706;28;20031;-63
2023/05/23 04:46:44;;;;;;;13.75;6.13;;;;;;;21.17;50.32;101749.69;4956738;28;20035;-64
2023/05/23 04:49:11;;;;;;;14.90;7.40;;;;;;;21.18;49.95;101748.66;4957631;28;20116;-64
2023/05/23 04:51:37;;;;;;;12.48;6.00;;;;;;;21.15;50.05;101757.19;4957171;28;20504;-64
2023/05/23 04:54:03;;;;;;;17.00;7.47;;;;;;;21.16;50.30;101747.16;4956732;29;20043;-65
2023/05/23 04:56:28;;;;;;;12.77;6.20;;;;;;;21.18;49.67;101754.13;4957651;28;20038;-64
2023/05/23 04:58:54;;;;;;;16.02;6.57;;;;;;;21.19;49.85;101755.81;4957054;28;20044;-65
2023/05/23 05:01:23;;;;;;;13.85;6.10;;;;;;;21.16;50.19;101760.78;4958130;28;20054;-65
2023/05/23 05:03:48;;;;;;;12.38;5.45;;;;;;;21.14;49.86;101757.34;4956482;28;20571;-64
2023/05/23 05:06:15;;;;;;;14.25;4.97;;;;;;;21.14;50.50;101762.81;4956066;29;20126;-65
2023/05/23 05:08:41;;;;;;;16.38;5.57;;;;;;;21.11;50.34;101758.56;4940165;29;20024;-64
2023/05/23 05:11:07;;;;;;;12.88;5.43;;;;;;;21.08;49.59;101764.34;4956810;28;20491;-65
2023/05/23 05:13:33;;;;;;;14.35;5.75;;;;;;;21.11;50.09;101754.97;4955787;28;20031;-65
2023/05/23 05:15:59;;;;;;;17.77;6.10;;;;;;;21.16;50.06;101750.69;4957473;28;20025;-64
2023/05/23 05:18:25;;;;;;;9.88;5.55;;;;;;;21.19;49.75;101755.81;4957127;28;20063;-65
2023/05/23 05:20:51;;;;;;;11.52;4.75;;;;;;;21.17;49.20;101760.59;4939964;29;20035;-64
2023/05/23 05:23:16;;;;;;;10.70;4.75;;;;;;;21.21;49.58;101764.69;4972235;28;20500;-64
2023/05/23 05:25:41;;;;;;;13.45;4.70;;;;;;;21.21;49.66;101763.81;4940827;28;20023;-64
2023/05/23 05:28:07;;;;;;;8.88;4.20;;;;;;;21.20;49.66;101765.69;4957742;28;20069;-64
2023/05/23 05:30:36;;;;;;;8.73;3.80;;;;;;;21.23;49.61;101767.22;4956199;28;20062;-64
2023/05/23 05:33:03;;;;;;;7.40;4.22;;;;;;;21.24;49.56;101761.59;4954919;29;20041;-64
2023/05/23 05:35:32;;;;;;;7.60;3.85;;;;;;;21.25;50.24;101774.19;4956727;29;20035;-63
2023/05/23 05:38:44;;;;;;;7.57;4.60;;;;;;;21.27;49.89;101774.84;4941597;29;20031;-64
2023/05/23 05:40:48;;;;;;;7.32;3.83;;;;;;;21.32;49.44;101772.47;4952954;28;20031;-64
2023/05/23 05:43:14;;;;;;;8.35;3.45;;;;;;;21.34;49.55;101780.47;4956410;29;20439;-64
2023/05/23 05:45:39;;;;;;;6.75;3.65;;;;;;;21.36;49.25;101783.84;4957087;28;20120;-64
2023/05/23 05:48:05;;;;;;;6.35;3.45;;;;;;;21.34;49.75;101786.75;4973372;28;20031;-65
2023/05/23 05:50:30;;;;;;;8.95;5.18;;;;;;;21.36;50.29;101787.44;4974733;28;20031;-65
2023/05/23 05:52:55;;;;;;;8.52;3.45;;;;;;;21.34;50.20;101789.50;4976217;28;20118;-64
2023/05/23 05:55:21;;;;;;;8.63;4.57;;;;;;;21.32;49.56;101787.97;4958902;28;20034;-64
2023/05/23 05:57:46;;;;;;;8.73;4.00;;;;;;;21.34;50.27;101794.09;4957145;28;20414;-64
2023/05/23 06:00:17;;;;;;;5.75;3.30;;;;;;;21.29;50.13;101786.44;4958099;28;20034;-64
2023/05/23 06:02:43;;;;;;;7.85;4.20;;;;;;;21.27;50.01;101787.66;4958712;28;20062;-65
2023/05/23 06:05:15;;;;;;;9.80;3.60;;;;;;;21.23;50.24;101792.59;4974085;28;20505;-64
2023/05/23 06:07:41;;;;;;;6.82;3.38;;;;;;;21.25;49.84;101795.97;4974296;28;20038;-66
2023/05/23 06:10:07;;;;;;;8.43;4.68;;;;;;;21.24;49.67;101791.59;4957532;28;20045;-66
2023/05/23 06:12:33;;;;;;;5.53;3.85;;;;;;;21.25;50.46;101801.44;4957757;28;20529;-63
2023/05/23 06:14:59;;;;;;;7.72;4.28;;;;;;;21.24;49.98;101805.22;4990103;28;20043;-63
2023/05/23 06:17:25;;;;;;;12.75;4.10;;;;;;;21.23;49.39;101811.66;4957823;28;20034;-64
2023/05/23 06:19:50;;;;;;;6.55;3.95;;;;;;;21.20;50.08;101801.13;4974972;28;20045;-64
2023/05/23 06:22:15;;;;;;;7.57;4.05;;;;;;;21.25;50.06;101808.75;4990231;28;20038;-65
2023/05/23 06:24:41;;;;;;;8.52;4.45;;;;;;;21.22;50.14;101807.22;4989942;28;20042;-64
2023/05/23 06:27:06;;;;;;;5.95;3.55;;;;;;;21.22;50.22;101799.06;4941613;28;20105;-65
2023/05/23 06:29:32;;;;;;;13.00;4.22;;;;;;;21.20;49.75;101809.28;4973612;28;20130;-64
2023/05/23 06:31:57;;;;;;;11.73;4.53;;;;;;;21.23;49.56;101806.22;4973547;28;20041;-65
2023/05/23 06:34:22;;;;;;;9.23;4.45;;;;;;;21.21;50.50;101808.28;4957838;28;20031;-64
2023/05/23 06:36:48;;;;;;;12.23;5.22;;;;;;;21.22;50.49;101815.41;4973370;28;20054;-65
2023/05/23 06:39:14;;;;;;;9.10;4.68;;;;;;;21.21;50.21;101815.59;4973365;28;20090;-64
2023/05/23 06:41:39;;;;;;;7.95;4.68;;;;;;;21.17;49.83;101815.09;4973673;28;20065;-65
2023/05/23 06:44:05;;;;;;;10.70;4.18;;;;;;;21.17;49.99;101820.53;4974880;28;20058;-64
2023/05/23 06:46:31;;;;;;;12.93;5.07;;;;;;;21.18;50.31;101822.25;4973436;28;20434;-64
2023/05/23 06:48:57;;;;;;;9.23;5.32;;;;;;;21.21;50.42;101815.59;4973850;28;20082;-65
2023/05/23 06:51:22;;;;;;;9.20;4.22;;;;;;;21.23;50.04;101821.72;4957082;28;20042;-64
2023/05/23 06:53:48;;;;;;;14.65;4.80;;;;;;;21.22;50.01;101825.47;4973221;28;20039;-64
2023/05/23 06:56:13;;;;;;;13.93;5.40;;;;;;;21.24;49.70;101827.00;4974269;28;20030;-65
2023/05/23 06:58:38;;;;;;;11.55;4.75;;;;;;;21.27;50.42;101826.63;4973053;28;20080;-64
2023/05/23 07:01:04;;;;;;;11.02;4.57;;;;;;;21.25;50.57;101825.97;4973364;28;20046;-65
2023/05/23 07:03:29;;;;;;;8.82;4.57;;;;;;;21.24;49.64;101829.75;4973164;28;20403;-65
2023/05/23 07:05:55;;;;;;;12.25;4.82;;;;;;;21.20;49.91;101825.66;4956943;28;20039;-64
2023/05/23 07:08:20;;;;;;;10.80;5.10;;;;;;;21.20;49.90;101828.38;4974240;28;20027;-64
2023/05/23 07:10:46;;;;;;;10.13;5.28;;;;;;;21.16;50.18;101835.19;4972882;28;20030;-64
2023/05/23 07:13:11;;;;;;;12.40;5.50;;;;;;;21.12;49.89;101839.28;4973497;28;20058;-64
2023/05/23 07:15:37;;;;;;;13.55;5.90;;;;;;;21.12;50.07;101847.47;4974151;28;20081;-64
2023/05/23 07:18:02;;;;;;;16.27;7.30;;;;;;;21.15;49.55;101843.53;4957004;28;20049;-65
2023/05/23 07:20:28;;;;;;;15.48;5.85;;;;;;;21.12;49.70;101846.59;4974295;28;20109;-64
2023/05/23 07:22:53;;;;;;;11.27;5.35;;;;;;;21.10;49.67;101854.97;4956428;28;20101;-64
2023/05/23 07:25:19;;;;;;;17.50;7.47;;;;;;;21.10;50.23;101852.25;4957301;28;20026;-64
2023/05/23 07:27:44;;;;;;;16.90;6.38;;;;;;;21.04;49.63;101862.94;4974029;28;20035;-63
2023/05/23 07:30:10;;;;;;;18.30;6.78;;;;;;;20.98;50.10;101878.09;4956671;28;20045;-64
2023/05/23 07:32:36;;;;;;;25.05;7.78;;;;;;;20.95;50.43;101877.59;4956807;28;20507;-64
2023/05/23 07:35:01;;;;;;;23.60;8.73;;;;;;;20.94;49.83;101873.19;4956693;28;20039;-64
2023/05/23 07:37:27;;;;;;;17.27;7.60;;;;;;;20.92;50.26;101873.34;4974403;28;20023;-64
2023/05/23 07:39:53;;;;;;;24.95;7.10;;;;;;;20.84;50.03;101870.59;4973867;28;20042;-64
2023/05/23 07:42:18;;;;;;;23.75;6.80;;;;;;;20.85;50.63;101873.16;4973895;28;20062;-66
2023/05/23 07:44:44;;;;;;;18.25;6.63;;;;;;;20.85;50.05;101877.78;4974043;28;20059;-64
2023/05/23 07:47:10;;;;;;;17.17;7.00;;;;;;;20.82;50.46;101878.09;4972407;28;20068;-64
2023/05/23 07:49:35;;;;;;;18.98;6.50;;;;;;;20.81;50.52;101881.84;4973989;28;20533;-64
2023/05/23 07:52:00;;;;;;;15.50;6.32;;;;;;;20.78;50.23;101883.03;4974551;28;20549;-65
2023/05/23 07:54:27;;;;;;;16.17;6.82;;;;;;;20.81;50.47;101887.28;4972711;28;20419;-64
2023/05/23 07:56:53;;;;;;;22.25;6.65;;;;;;;20.84;50.50;101897.84;4972710;28;20182;-64
2023/05/23 07:59:19;;;;;;;21.92;5.97;;;;;;;20.81;50.31;101893.59;4956313;28;20117;-64
2023/05/23 08:01:44;;;;;;;22.48;6.35;;;;;;;20.81;50.35;101893.59;4972515;28;20058;-64
2023/05/23 08:04:09;;;;;;;22.98;6.88;;;;;;;20.79;50.69;101894.78;4974603;28;20031;-65
2023/05/23 08:06:36;;;;;;;20.38;6.25;;;;;;;20.81;50.62;101898.19;4972085;28;20497;-64
2023/05/23 08:09:02;;;;;;;19.73;6.00;;;;;;;20.92;50.11;101901.44;4972824;28;20051;-65
2023/05/23 08:11:29;;;;;;;14.35;5.35;;;;;;;20.99;50.00;101896.16;4973741;28;20031;-65
2023/05/23 08:13:54;;;;;;;10.20;3.40;;;;;;;21.07;50.13;101898.91;4972075;28;20031;-65
2023/05/23 08:16:20;;;;;;;13.05;4.55;;;;;;;21.13;49.36;101892.78;4989159;28;20045;-66
2023/05/23 08:18:45;;;;;;;9.95;3.47;;;;;;;21.26;49.67;101890.38;4972286;28;20058;-66
2023/05/23 08:21:11;;;;;;;11.48;3.50;;;;;;;21.41;49.57;101896.78;4985932;28;20088;-65
2023/05/23 08:23:36;;;;;;;15.75;5.97;;;;;;;21.48;49.36;101897.81;4991450;28;20487;-66
2023/05/23 08:26:02;;;;;;;11.52;4.95;;;;;;;21.53;49.20;101899.16;4991455;28;20332;-65
2023/05/23 08:28:27;;;;;;;11.05;5.25;;;;;;;21.55;48.91;101900.72;4991960;28;20030;-65
2023/05/23 08:30:53;;;;;;;15.45;4.22;;;;;;;21.51;49.41;101896.63;5007937;28;20506;-66
2023/05/23 08:33:18;;;;;;;15.18;4.13;;;;;;;21.46;49.71;101910.78;5008216;28;20518;-66
2023/05/23 08:35:44;;;;;;;9.60;3.60;;;;;;;21.41;49.27;101920.50;5011496;28;20410;-66
2023/05/23 08:38:09;;;;;;;9.77;2.83;;;;;;;21.35;49.87;101908.41;4995046;28;20110;-66
2023/05/23 08:40:35;;;;;;;5.13;2.70;;;;;;;21.35;48.82;101913.88;4996495;28;20089;-65
2023/05/23 08:43:01;;;;;;;8.15;2.65;;;;;;;21.31;48.73;101922.53;4995781;28;20030;-65
2023/05/23 08:45:29;;;;;;;7.72;2.78;;;;;;;21.29;48.94;101930.91;4995303;28;20039;-66
2023/05/23 08:47:54;;;;;;;5.03;2.45;;;;;;;21.35;48.66;101924.78;4995021;28;20038;-66
2023/05/23 08:50:20;;;;;;;9.27;2.50;;;;;;;21.43;47.84;101932.94;5011450;28;20557;-65
2023/05/23 08:52:57;;;;;;;5.88;2.90;;;;;;;21.51;47.79;101928.47;4995996;28;20122;-64
2023/05/23 08:55:27;;;;;;;5.15;2.83;;;;;;;21.60;47.79;101936.50;4985385;28;20520;-66
2023/05/23 08:57:59;;;;;;;4.88;2.38;;;;;;;21.68;47.43;101941.06;5011118;28;20105;-65
2023/05/23 09:00:25;;;;;;;7.72;2.55;;;;;;;21.72;47.57;101939.69;4994685;28;20038;-65
2023/05/23 09:02:51;;;;;;;11.43;2.53;;;;;;;21.79;47.28;101946.16;4995858;28;20038;-64
2023/05/23 09:05:16;;;;;;;7.53;3.00;;;;;;;21.83;47.52;101951.06;4994577;28;20037;-65
2023/05/23 09:07:49;;;;;;;14.95;2.80;;;;;;;21.87;47.58;101952.47;4994654;28;20616;-63
2023/05/23 09:10:24;;;;;;;8.13;2.67;;;;;;;21.92;47.18;101949.19;5010897;28;20089;-64
2023/05/23 09:12:50;;;;;;;8.73;2.47;;;;;;;21.95;47.08;101952.44;4994474;28;20044;-64
2023/05/23 09:15:15;;;;;;;8.98;3.25;;;;;;;22.02;46.76;101955.31;4994396;28;20120;-64
2023/05/23 09:17:41;;;;;;;9.25;3.15;;;;;;;22.07;46.60;101952.91;4994384;28;20035;-64
2023/05/23 09:20:15;;;;;;;9.02;2.80;;;;;;;22.14;46.37;101947.59;4977931;28;20054;-64
2023/05/23 09:22:40;;;;;;;6.35;2.50;;;;;;;22.28;46.29;101938.66;5010502;28;20034;-63
2023/05/23 09:25:07;;;;;;;16.73;2.88;;;;;;;22.42;46.14;101952.38;4994588;28;20026;-64
2023/05/23 09:27:32;;;;;;;12.27;3.53;;;;;;;22.70;45.56;101954.69;4994099;28;20034;-64
2023/05/23 09:30:04;;;;;;;7.13;2.63;;;;;;;22.89;45.30;101949.56;5010532;28;20034;-64
2023/05/23 09:32:30;;;;;;;6.70;2.58;;;;;;;23.13;44.67;101948.53;5010652;28;20550;-64
2023/05/23 09:34:59;;;;;;;13.40;3.13;;;;;;;23.17;44.40;101952.59;4977755;28;20038;-65
2023/05/23 09:37:33;;;;;;;8.07;3.28;;;;;;;23.29;44.88;101942.91;4994418;28;20026;-63
2023/05/23 09:40:00;;;;;;;5.78;2.63;;;;;;;23.55;43.80;101937.91;4969412;28;20039;-63
2023/05/23 09:42:31;;;;;;;12.50;3.78;;;;;;;23.53;44.33;101940.00;4993961;28;20065;-63
2023/05/23 09:44:57;;;;;;;8.18;3.17;;;;;;;23.72;44.03;101941.31;4993539;28;20038;-64
2023/05/23 09:47:23;;;;;;;12.82;3.03;;;;;;;24.19;43.01;101938.22;5010248;28;20115;-64
2023/05/23 09:49:50;;;;;;;8.30;3.13;;;;;;;24.29;42.87;101942.34;4977511;28;20050;-63
2023/05/23 09:52:15;;;;;;;12.32;3.40;;;;;;;24.25;42.56;101942.94;4994268;28;20038;-64
2023/05/23 09:54:42;;;;;;;6.55;3.20;;;;;;;24.17;42.35;101946.63;4976293;28;20126;-63
2023/05/23 09:57:09;;;;;;;9.65;3.42;;;;;;;24.13;42.11;101949.91;4958077;28;20035;-64
2023/05/23 09:59:38;;;;;;;8.52;3.00;;;;;;;24.06;42.92;101951.69;4974161;28;20129;-63
2023/05/23 10:02:06;;;;;;;6.78;3.40;;;;;;;24.02;42.47;101944.91;4957703;28;20462;-62
2023/05/23 10:04:33;;;;;;;8.13;2.80;;;;;;;24.04;42.49;101948.28;4973907;28;20031;-64
2023/05/23 10:07:17;;;;;;;6.70;2.45;;;;;;;24.10;42.70;101950.31;4958399;28;20410;-63
2023/05/23 10:09:47;;;;;;;8.45;3.15;;;;;;;24.13;41.86;101958.13;4973992;28;20111;-64
2023/05/23 10:12:30;;;;;;;6.90;2.30;;;;;;;24.16;42.32;101949.53;4973987;28;20034;-64
2023/05/23 10:14:57;;;;;;;6.95;2.72;;;;;;;24.14;42.46;101954.38;4973908;28;20034;-63
2023/05/23 10:17:43;;;;;;;8.68;2.92;;;;;;;24.06;41.99;101954.44;4974035;28;20557;-64
2023/05/23 10:20:14;;;;;;;5.47;2.15;;;;;;;24.04;42.25;101959.22;4975030;28;20043;-64
2023/05/23 10:22:41;;;;;;;5.18;2.83;;;;;;;24.01;41.62;101956.91;4957407;28;20418;-63
2023/05/23 10:25:09;;;;;;;8.88;2.38;;;;;;;23.96;42.21;101965.66;4958120;28;20031;-64
2023/05/23 10:27:36;;;;;;;7.97;2.33;;;;;;;23.95;42.08;101963.13;4957862;28;20507;-63
2023/05/23 10:30:01;;;;;;;6.88;2.20;;;;;;;23.86;41.57;101964.25;4974678;28;20085;-63
2023/05/23 10:32:28;;;;;;;5.47;2.00;;;;;;;23.83;41.57;101968.22;4973440;28;20062;-65
2023/05/23 10:34:59;;;;;;;5.50;2.13;;;;;;;23.76;41.45;101970.00;4957670;28;20031;-65
2023/05/23 10:37:45;;;;;;;5.07;2.00;;;;;;;23.67;41.14;101977.44;4973761;28;20435;-64
2023/05/23 10:40:19;;;;;;;9.48;2.22;;;;;;;23.60;41.39;101973.75;4973448;28;20054;-64
2023/05/23 10:42:53;;;;;;;7.63;2.05;;;;;;;23.69;42.10;101975.38;4973481;28;20027;-64
2023/05/23 10:45:20;;;;;;;4.80;2.20;;;;;;;23.84;41.58;101980.03;4957465;28;20038;-64
2023/05/23 10:47:52;;;;;;;5.93;2.22;;;;;;;23.97;40.80;101964.63;4973645;28;20042;-64
2023/05/23 10:50:32;;;;;;;5.65;1.60;;;;;;;24.10;40.86;101973.06;4941369;28;20033;-64
2023/05/23 10:53:02;;;;;;;7.05;2.17;;;;;;;24.27;40.47;101968.22;4973360;28;20035;-65
2023/05/23 10:55:32;;;;;;;5.95;2.00;;;;;;;24.32;41.04;101972.09;4973504;28;20105;-64
2023/05/23 10:58:15;;;;;;;7.32;2.40;;;;;;;24.62;40.12;101967.38;4972956;28;20519;-63
2023/05/23 11:00:54;;;;;;;7.88;1.95;;;;;;;24.69;39.94;101965.59;4972907;28;20562;-64
2023/05/23 11:03:45;;;;;;;4.25;1.92;;;;;;;24.95;40.01;101961.47;4989310;28;20034;-64
2023/05/23 11:06:38;;;;;;;2.15;1.55;;;;;;;24.77;39.93;101957.25;4967635;28;20066;-64
2023/05/23 11:09:18;;;;;;;4.68;1.30;;;;;;;24.67;40.40;101967.69;4955079;28;20031;-63
2023/05/23 11:11:52;;;;;;;5.10;2.03;;;;;;;24.58;40.26;101966.09;4972897;28;20069;-63
2023/05/23 11:14:19;;;;;;;5.95;1.65;;;;;;;24.51;40.48;101976.09;4974129;28;20054;-64
2023/05/23 11:16:45;;;;;;;8.55;2.10;;;;;;;24.59;40.10;101973.28;4957047;28;20414;-64
2023/05/23 11:19:17;;;;;;;6.72;1.25;;;;;;;24.80;39.83;101970.59;4973011;28;20031;-64
2023/05/23 11:21:53;;;;;;;4.43;1.40;;;;;;;24.91;39.34;101961.00;4972830;28;20510;-64